Time;durP1;ratioP1;P1;durP2;ratioP2;P2;SDS_P1;SDS_P2;PMS_P1;PMS_P2;Temp;Humidity;BMP_temperature;BMP_pressure;BME280_temperature;BME280_humidity;BME280_pressure;Samples;Min_cycle;Max_cycle;Signal;HPM_P1;HPM_P2
2023/07/28 00:00:46;;;;;;;0.60;0.60;;;;;;;19.55;60.17;99391.34;5071456;28;20194;-63
2023/07/28 00:03:14;;;;;;;0.60;0.60;;;;;;;19.35;60.83;99368.44;5071839;28;20197;-63
2023/07/28 00:05:40;;;;;;;0.67;0.67;;;;;;;19.33;60.60;99360.72;5071261;28;20322;-63
2023/07/28 00:08:07;;;;;;;0.70;0.70;;;;;;;19.48;60.52;99390.09;5071031;28;20196;-63
2023/07/28 00:10:34;;;;;;;0.70;0.70;;;;;;;19.49;60.82;99399.56;5071164;28;20213;-63
2023/07/28 00:13:02;;;;;;;0.87;0.87;;;;;;;19.39;61.11;99385.47;5071404;28;20196;-62
2023/07/28 00:15:29;;;;;;;3.13;1.03;;;;;;;19.33;61.12;99380.66;5071113;28;20251;-63
2023/07/28 00:17:56;;;;;;;1.13;1.13;;;;;;;19.30;61.08;99380.88;5070811;28;20679;-63
2023/07/28 00:20:24;;;;;;;1.07;1.07;;;;;;;19.32;61.32;99392.03;5071093;28;20280;-62
2023/07/28 00:22:50;;;;;;;1.40;1.40;;;;;;;19.29;61.60;99406.03;5070890;28;20196;-62
2023/07/28 00:25:17;;;;;;;1.20;1.20;;;;;;;19.17;61.44;99382.63;5070858;28;20207;-62
2023/07/28 00:27:44;;;;;;;0.70;0.70;;;;;;;19.24;62.07;99391.69;5070570;28;20197;-63
2023/07/28 00:30:13;;;;;;;4.43;1.57;;;;;;;19.29;61.72;99392.19;5070994;28;20220;-63
2023/07/28 00:32:39;;;;;;;0.70;0.70;;;;;;;19.28;61.69;99390.56;5068124;28;20219;-63
2023/07/28 00:35:07;;;;;;;0.57;0.57;;;;;;;19.23;61.44;99390.84;5070248;28;20576;-63
2023/07/28 00:37:35;;;;;;;0.77;0.77;;;;;;;19.21;61.57;99391.88;5070866;28;20200;-63
2023/07/28 00:40:02;;;;;;;0.90;0.90;;;;;;;19.15;62.07;99392.28;5070384;28;20254;-63
2023/07/28 00:42:29;;;;;;;0.60;0.60;;;;;;;19.07;62.40;99392.78;5071216;28;20196;-63
2023/07/28 00:44:56;;;;;;;0.60;0.60;;;;;;;18.98;62.33;99390.78;5070808;28;20584;-63
2023/07/28 00:47:23;;;;;;;0.87;0.87;;;;;;;18.91;62.68;99383.47;5070672;28;20199;-63
2023/07/28 00:49:50;;;;;;;0.67;0.67;;;;;;;18.77;63.02;99380.00;5070677;28;20698;-64
2023/07/28 00:52:16;;;;;;;0.80;0.80;;;;;;;18.75;63.49;99389.66;5071005;28;20591;-63
2023/07/28 00:54:45;;;;;;;0.70;0.70;;;;;;;18.76;63.68;99391.34;5070854;28;20671;-63
2023/07/28 00:57:12;;;;;;;0.90;0.90;;;;;;;18.79;63.67;99391.13;5069115;28;20571;-63
2023/07/28 00:59:39;;;;;;;0.80;0.80;;;;;;;18.79;63.25;99380.75;5070277;28;20199;-63
2023/07/28 01:02:06;;;;;;;0.70;0.70;;;;;;;18.73;62.83;99370.75;5070467;28;20557;-63
2023/07/28 01:04:33;;;;;;;0.80;0.80;;;;;;;18.76;62.97;99385.31;5070756;28;20224;-63
2023/07/28 01:07:09;;;;;;;0.63;0.63;;;;;;;18.69;63.29;99382.25;5070025;28;20258;-63
2023/07/28 01:09:44;;;;;;;0.40;0.40;;;;;;;18.68;63.28;99388.38;5070285;28;20314;-63
2023/07/28 01:12:12;;;;;;;0.80;0.80;;;;;;;18.67;62.91;99386.72;5070527;28;20695;-63
2023/07/28 01:14:39;;;;;;;0.70;0.70;;;;;;;18.61;63.36;99368.09;5069868;28;20239;-64
2023/07/28 01:17:06;;;;;;;0.60;0.60;;;;;;;18.49;63.50;99359.28;5070197;28;20227;-63
2023/07/28 01:19:32;;;;;;;0.40;0.40;;;;;;;18.53;63.62;99373.78;5069429;28;20195;-63
2023/07/28 01:22:17;;;;;;;0.60;0.60;;;;;;;18.61;63.82;99381.91;5070523;28;20580;-63
2023/07/28 01:24:52;;;;;;;0.53;0.53;;;;;;;18.60;63.75;99382.84;5066281;28;20230;-63
2023/07/28 01:27:21;;;;;;;0.70;0.70;;;;;;;18.41;64.65;99371.91;5069917;28;20690;-63
2023/07/28 01:29:48;;;;;;;0.60;0.60;;;;;;;18.36;64.53;99374.78;5070552;28;20298;-63
2023/07/28 01:32:15;;;;;;;0.50;0.50;;;;;;;18.34;64.79;99383.59;5070299;28;20648;-63
2023/07/28 01:34:42;;;;;;;0.90;0.90;;;;;;;18.34;64.74;99378.41;5070104;28;20199;-63
2023/07/28 01:37:09;;;;;;;1.00;1.00;;;;;;;18.04;65.45;99352.59;5069954;28;20212;-63
2023/07/28 01:39:36;;;;;;;0.70;0.70;;;;;;;18.16;65.29;99367.41;5070361;28;20659;-63
2023/07/28 01:42:02;;;;;;;0.63;0.63;;;;;;;18.13;65.77;99371.94;5070445;28;20207;-63
2023/07/28 01:44:31;;;;;;;0.80;0.80;;;;;;;18.05;65.62;99359.47;5070214;28;20204;-63
2023/07/28 01:46:57;;;;;;;0.60;0.60;;;;;;;18.07;66.20;99372.31;5070659;28;20207;-63
2023/07/28 01:49:24;;;;;;;0.57;0.57;;;;;;;18.09;66.22;99386.06;5073704;28;20220;-63
2023/07/28 01:51:51;;;;;;;0.80;0.80;;;;;;;18.13;66.34;99382.31;5074257;28;20663;-63
2023/07/28 01:54:18;;;;;;;0.67;0.63;;;;;;;18.16;66.19;99389.91;5074203;28;20682;-62
2023/07/28 01:56:44;;;;;;;1.00;1.00;;;;;;;18.15;66.00;99377.88;5073719;28;20204;-63
2023/07/28 01:59:13;;;;;;;0.60;0.60;;;;;;;18.21;66.11;99396.50;5073170;28;20773;-62
2023/07/28 02:01:41;;;;;;;0.73;0.73;;;;;;;18.23;65.82;99388.63;5073517;28;20200;-63
2023/07/28 02:04:08;;;;;;;0.73;0.73;;;;;;;18.10;65.40;99362.59;5074251;28;20202;-63
2023/07/28 02:06:34;;;;;;;0.70;0.70;;;;;;;18.34;65.06;99404.38;5073388;28;20227;-63
2023/07/28 02:09:01;;;;;;;0.80;0.80;;;;;;;18.35;65.25;99404.25;5072700;28;20253;-63
2023/07/28 02:11:28;;;;;;;0.60;0.60;;;;;;;18.30;64.88;99384.72;5073060;28;20269;-63
2023/07/28 02:13:55;;;;;;;0.63;0.63;;;;;;;18.45;65.36;99396.72;5073612;28;20200;-63
2023/07/28 02:16:22;;;;;;;0.90;0.90;;;;;;;18.46;64.42;99393.22;5073305;28;20227;-63
2023/07/28 02:18:50;;;;;;;0.73;0.73;;;;;;;18.58;63.92;99408.06;5073168;28;20197;-63
2023/07/28 02:21:16;;;;;;;0.80;0.80;;;;;;;18.65;63.76;99409.34;5073706;28;20199;-63
2023/07/28 02:24:18;;;;;;;1.23;1.17;;;;;;;18.71;63.83;99408.94;5073137;28;20200;-62
2023/07/28 02:26:46;;;;;;;0.70;0.70;;;;;;;18.78;63.10;99404.19;5070544;28;20614;-63
2023/07/28 02:29:12;;;;;;;0.80;0.80;;;;;;;18.71;63.05;99393.38;5072874;28;20199;-63
2023/07/28 02:31:39;;;;;;;1.10;1.10;;;;;;;18.82;62.53;99405.69;5073208;28;20207;-63
2023/07/28 02:34:07;;;;;;;0.70;0.70;;;;;;;18.90;62.61;99405.22;5073113;28;20200;-63
2023/07/28 02:36:34;;;;;;;0.73;0.73;;;;;;;18.71;62.08;99372.59;5072911;28;20195;-63
2023/07/28 02:39:01;;;;;;;0.53;0.53;;;;;;;18.71;61.77;99377.78;5073197;28;20217;-63
2023/07/28 02:41:28;;;;;;;0.87;0.87;;;;;;;18.81;61.85;99394.47;5073085;28;20241;-63
2023/07/28 02:43:55;;;;;;;0.70;0.70;;;;;;;18.82;61.65;99403.94;5072338;28;20246;-63
2023/07/28 02:46:21;;;;;;;1.90;0.93;;;;;;;18.71;61.59;99403.75;5073086;28;20349;-63
2023/07/28 02:48:48;;;;;;;0.90;0.90;;;;;;;18.70;61.75;99399.50;5072593;28;20660;-63
2023/07/28 02:51:16;;;;;;;0.70;0.70;;;;;;;18.61;61.53;99397.47;5072882;28;20587;-63
2023/07/28 02:53:43;;;;;;;0.60;0.60;;;;;;;18.74;61.87;99411.34;5072613;28;20203;-63
2023/07/28 02:56:10;;;;;;;0.60;0.60;;;;;;;18.74;61.55;99406.16;5072884;28;20646;-63
2023/07/28 02:58:37;;;;;;;0.60;0.60;;;;;;;18.67;62.02;99407.50;5072736;28;20683;-63
2023/07/28 03:01:03;;;;;;;0.60;0.60;;;;;;;18.68;62.25;99397.91;5072419;28;20215;-63
2023/07/28 03:03:30;;;;;;;0.70;0.70;;;;;;;18.37;61.32;99354.88;5072475;28;20196;-63
2023/07/28 03:05:57;;;;;;;0.67;0.67;;;;;;;18.56;61.50;99399.53;5072513;28;20679;-63
2023/07/28 03:08:25;;;;;;;1.03;1.03;;;;;;;18.56;61.96;99409.94;5071962;28;20288;-63
2023/07/28 03:10:57;;;;;;;0.60;0.60;;;;;;;18.54;61.58;99416.16;5072177;28;20274;-63
2023/07/28 03:13:24;;;;;;;0.93;0.93;;;;;;;18.54;62.04;99422.19;5070960;28;20218;-63
2023/07/28 03:15:51;;;;;;;0.73;0.73;;;;;;;18.57;61.96;99416.78;5072224;28;20223;-63
2023/07/28 03:18:17;;;;;;;0.60;0.57;;;;;;;18.45;61.79;99407.13;5072202;28;20207;-63
2023/07/28 03:20:44;;;;;;;0.93;0.93;;;;;;;18.40;62.92;99416.97;5072345;28;20195;-63
2023/07/28 03:23:11;;;;;;;1.20;1.20;;;;;;;18.30;65.36;99421.88;5072001;28;20205;-62
2023/07/28 03:25:39;;;;;;;0.53;0.53;;;;;;;18.17;65.95;99408.00;5072260;28;20199;-63
2023/07/28 03:28:06;;;;;;;1.40;1.40;;;;;;;18.18;66.91;99414.03;5071843;28;20223;-62
2023/07/28 03:30:32;;;;;;;0.80;0.80;;;;;;;18.13;66.76;99410.84;5070970;28;20211;-63
2023/07/28 03:32:59;;;;;;;0.70;0.70;;;;;;;18.20;66.27;99438.09;5071870;28;20299;-63
2023/07/28 03:35:26;;;;;;;0.53;0.53;;;;;;;17.94;66.94;99428.47;5071848;28;20203;-63
2023/07/28 03:37:53;;;;;;;0.53;0.53;;;;;;;17.78;68.29;99436.31;5071695;28;20211;-63
2023/07/28 03:40:20;;;;;;;0.70;0.70;;;;;;;17.71;71.73;99451.41;5071781;28;20325;-63
2023/07/28 03:42:48;;;;;;;0.40;0.40;;;;;;;17.60;73.53;99448.63;5071685;28;20195;-63
2023/07/28 03:45:15;;;;;;;0.97;0.97;;;;;;;17.59;74.59;99446.94;5071894;28;20657;-63
2023/07/28 03:47:41;;;;;;;1.40;0.83;;;;;;;17.63;75.00;99448.44;5070630;28;20200;-62
2023/07/28 03:50:09;;;;;;;0.80;0.80;;;;;;;17.71;74.95;99454.00;5071693;28;20212;-64
2023/07/28 03:52:35;;;;;;;0.97;0.97;;;;;;;17.82;75.24;99458.56;5071060;28;20207;-63
2023/07/28 03:55:02;;;;;;;0.90;0.90;;;;;;;17.79;75.18;99444.03;5071325;28;20333;-63
2023/07/28 03:57:29;;;;;;;1.00;1.00;;;;;;;18.05;74.96;99463.22;5070920;28;20196;-63
2023/07/28 03:59:57;;;;;;;0.60;0.60;;;;;;;18.03;74.90;99440.91;5069873;28;20211;-63
2023/07/28 04:02:24;;;;;;;0.70;0.70;;;;;;;18.31;74.34;99461.66;5070461;28;20199;-63
2023/07/28 04:04:55;;;;;;;1.37;1.30;;;;;;;18.44;73.21;99452.19;5070863;28;20222;-63
2023/07/28 04:07:22;;;;;;;0.80;0.80;;;;;;;18.67;72.77;99456.84;5068403;28;20201;-63
2023/07/28 04:09:49;;;;;;;0.87;0.87;;;;;;;18.83;71.95;99470.53;5067868;28;20572;-63
2023/07/28 04:12:16;;;;;;;0.80;0.80;;;;;;;18.95;70.97;99463.72;5070885;28;20656;-63
2023/07/28 04:14:43;;;;;;;1.07;1.07;;;;;;;19.05;68.98;99466.56;5069287;28;20726;-63
2023/07/28 04:17:11;;;;;;;0.97;0.97;;;;;;;19.21;68.54;99469.84;5070269;28;20204;-62
2023/07/28 04:19:38;;;;;;;0.50;0.50;;;;;;;19.36;67.60;99480.09;5069991;28;20706;-63
2023/07/28 04:22:05;;;;;;;0.90;0.90;;;;;;;19.42;67.75;99460.69;5071088;28;20204;-63
2023/07/28 04:24:32;;;;;;;0.80;0.80;;;;;;;19.68;67.18;99475.41;5070059;28;20197;-63
2023/07/28 04:26:59;;;;;;;0.83;0.73;;;;;;;19.87;65.24;99475.06;5070809;28;20193;-63
2023/07/28 04:29:26;;;;;;;6.80;0.90;;;;;;;20.03;64.01;99480.88;5070528;28;20200;-62
2023/07/28 04:31:54;;;;;;;1.00;1.00;;;;;;;20.17;63.63;99477.31;5070428;28;20240;-63
2023/07/28 04:34:22;;;;;;;1.13;1.10;;;;;;;20.30;62.93;99478.19;5070209;28;20204;-63
2023/07/28 04:36:49;;;;;;;0.90;0.90;;;;;;;20.52;63.09;99480.16;5070120;28;20200;-63
2023/07/28 04:39:16;;;;;;;1.37;1.10;;;;;;;20.72;62.35;99476.97;5069373;28;20210;-63
2023/07/28 04:41:42;;;;;;;1.30;1.20;;;;;;;20.82;61.29;99478.84;5070316;28;20625;-63
2023/07/28 04:44:09;;;;;;;0.90;0.90;;;;;;;20.90;60.79;99463.47;5070812;28;20577;-63
2023/07/28 04:46:36;;;;;;;1.00;0.90;;;;;;;21.17;62.20;99471.13;5068480;28;20591;-63
2023/07/28 04:49:03;;;;;;;1.23;1.13;;;;;;;21.40;58.38;99479.88;5069731;28;20490;-63
2023/07/28 04:51:31;;;;;;;1.47;0.63;;;;;;;21.55;58.64;99481.34;5068654;28;20334;-63
2023/07/28 04:53:58;;;;;;;1.00;1.00;;;;;;;21.68;58.27;99476.88;5070239;28;20199;-63
2023/07/28 04:56:25;;;;;;;1.10;1.10;;;;;;;21.64;56.98;99446.78;5070458;28;20206;-63
2023/07/28 04:58:52;;;;;;;0.90;0.90;;;;;;;22.00;58.17;99477.13;5069641;28;20196;-63
2023/07/28 05:01:18;;;;;;;0.80;0.80;;;;;;;22.21;55.89;99495.53;5070607;28;20664;-65
2023/07/28 05:03:45;;;;;;;0.93;0.87;;;;;;;22.37;55.57;99478.59;5066986;28;20196;-63
2023/07/28 05:06:12;;;;;;;0.83;0.83;;;;;;;22.53;55.28;99483.44;5067686;28;20215;-63
2023/07/28 05:08:40;;;;;;;0.90;0.90;;;;;;;22.62;52.76;99474.88;5069253;28;20212;-63
2023/07/28 05:11:07;;;;;;;0.60;0.60;;;;;;;22.88;50.93;99478.91;5067875;28;20212;-63
2023/07/28 05:13:33;;;;;;;0.60;0.60;;;;;;;23.18;50.40;99503.56;5069987;28;20204;-63
2023/07/28 05:16:00;;;;;;;0.73;0.73;;;;;;;23.23;50.11;99490.97;5069965;28;20227;-63
2023/07/28 05:18:27;;;;;;;0.67;0.67;;;;;;;23.26;49.66;99475.03;5069528;28;20293;-63
2023/07/28 05:20:54;;;;;;;0.73;0.73;;;;;;;23.60;48.90;99505.38;5068378;28;20199;-63
2023/07/28 05:23:22;;;;;;;0.93;0.93;;;;;;;23.62;49.60;99503.44;5070152;28;20777;-64
2023/07/28 05:25:50;;;;;;;0.80;0.80;;;;;;;23.81;47.63;99500.16;5073175;28;20207;-63
2023/07/28 05:28:17;;;;;;;0.60;0.60;;;;;;;23.95;46.79;99516.38;5072448;28;20803;-62
2023/07/28 05:30:43;;;;;;;0.60;0.60;;;;;;;24.19;47.46;99513.53;5062601;28;20220;-62
2023/07/28 05:33:10;;;;;;;0.60;0.60;;;;;;;24.39;46.58;99519.69;5063144;28;20196;-63
2023/07/28 05:35:37;;;;;;;0.70;0.70;;;;;;;24.55;46.82;99514.81;5068182;28;20257;-62
2023/07/28 05:38:03;;;;;;;0.70;0.70;;;;;;;24.81;46.27;99516.00;5069317;28;20793;-63
2023/07/28 05:40:31;;;;;;;0.70;0.70;;;;;;;25.07;45.24;99511.94;5067185;28;20663;-63
2023/07/28 05:42:59;;;;;;;0.83;0.83;;;;;;;25.27;45.17;99504.09;5073528;28;20699;-63
2023/07/28 05:45:26;;;;;;;0.60;0.60;;;;;;;25.38;44.47;99510.06;5072774;28;20219;-63
2023/07/28 05:47:52;;;;;;;0.67;0.67;;;;;;;25.51;44.52;99517.69;5067462;28;20204;-63
2023/07/28 05:50:19;;;;;;;0.80;0.80;;;;;;;25.65;45.77;99503.31;5071732;28;20265;-63
2023/07/28 05:52:46;;;;;;;0.80;0.80;;;;;;;25.79;44.30;99492.38;5073082;28;20204;-63
2023/07/28 05:55:13;;;;;;;0.63;0.63;;;;;;;25.97;44.57;99509.94;5073396;28;20218;-63
2023/07/28 05:57:40;;;;;;;0.80;0.80;;;;;;;26.16;45.33;99513.47;5072890;28;20207;-63
2023/07/28 06:00:11;;;;;;;0.63;0.63;;;;;;;26.40;41.79;99519.09;5070373;28;20207;-63
2023/07/28 06:02:39;;;;;;;0.50;0.50;;;;;;;26.48;40.96;99516.59;5070102;28;20283;-62
2023/07/28 06:05:06;;;;;;;0.60;0.60;;;;;;;26.62;42.42;99502.97;5072805;28;20564;-62
2023/07/28 06:07:33;;;;;;;0.50;0.50;;;;;;;26.66;39.87;99503.53;5071881;28;20261;-62
2023/07/28 06:10:00;;;;;;;0.70;0.70;;;;;;;26.62;40.70;99510.88;5072100;28;20215;-64
2023/07/28 06:12:26;;;;;;;0.70;0.70;;;;;;;26.57;40.91;99505.19;5071642;28;20700;-62
2023/07/28 06:14:53;;;;;;;0.53;0.53;;;;;;;26.62;39.69;99509.03;5071734;28;20921;-63
2023/07/28 06:17:21;;;;;;;0.67;0.67;;;;;;;26.72;39.41;99514.25;5070994;28;20208;-62
2023/07/28 06:19:48;;;;;;;0.57;0.57;;;;;;;26.78;38.16;99518.13;5070305;28;20675;-62
2023/07/28 06:22:15;;;;;;;0.47;0.47;;;;;;;26.91;39.22;99513.38;5070804;28;20268;-62
2023/07/28 06:24:42;;;;;;;0.60;0.60;;;;;;;27.01;38.19;99519.44;5070814;28;20200;-62
2023/07/28 06:27:10;;;;;;;0.40;0.40;;;;;;;27.17;37.20;99509.06;5071894;28;20711;-63
2023/07/28 06:29:37;;;;;;;0.67;0.67;;;;;;;27.17;36.37;99509.06;5070475;28;20200;-61
2023/07/28 06:32:04;;;;;;;0.50;0.50;;;;;;;27.31;38.09;99510.34;5071810;28;20227;-64
2023/07/28 06:34:32;;;;;;;0.60;0.60;;;;;;;27.39;36.96;99500.72;5069326;28;20223;-62
2023/07/28 06:36:59;;;;;;;0.47;0.47;;;;;;;27.44;38.88;99489.75;5070923;28;20204;-61
2023/07/28 06:39:26;;;;;;;0.37;0.37;;;;;;;27.56;38.74;99478.84;5072655;28;20211;-62
2023/07/28 06:41:52;;;;;;;0.30;0.30;;;;;;;27.77;37.98;99496.13;5071413;28;20529;-64
2023/07/28 06:44:19;;;;;;;0.80;0.80;;;;;;;27.92;38.52;99490.16;5070615;28;20660;-62
2023/07/28 06:46:47;;;;;;;4.37;0.70;;;;;;;28.14;39.75;99488.88;5072129;28;20656;-62
2023/07/28 06:49:14;;;;;;;0.40;0.40;;;;;;;28.30;38.64;99490.75;5071925;28;20200;-62
2023/07/28 06:51:42;;;;;;;0.50;0.50;;;;;;;28.24;37.84;99483.47;5071879;28;20212;-63
2023/07/28 06:54:12;;;;;;;3.23;0.53;;;;;;;28.27;36.98;99483.16;5071353;28;20261;-63
2023/07/28 06:56:39;;;;;;;0.57;0.57;;;;;;;28.31;39.31;99489.75;5070394;28;20580;-63
2023/07/28 06:59:06;;;;;;;0.50;0.50;;;;;;;28.53;35.89;99489.22;5071131;28;20729;-63
2023/07/28 07:01:33;;;;;;;0.53;0.50;;;;;;;28.61;36.26;99481.34;5070508;28;20203;-62
2023/07/28 07:04:00;;;;;;;0.40;0.40;;;;;;;28.72;34.48;99491.66;5070713;28;20200;-63
2023/07/28 07:06:27;;;;;;;0.83;0.60;;;;;;;28.80;35.79;99488.19;5070969;28;20204;-63
2023/07/28 07:08:55;;;;;;;0.60;0.60;;;;;;;28.97;36.49;99476.72;5071182;28;20232;-62
2023/07/28 07:11:22;;;;;;;0.50;0.50;;;;;;;29.06;37.48;99481.00;5066654;28;20859;-63
2023/07/28 07:13:49;;;;;;;0.40;0.40;;;;;;;29.09;33.89;99481.53;5070777;28;20219;-64
2023/07/28 07:16:16;;;;;;;0.40;0.40;;;;;;;28.89;36.82;99463.47;5072342;28;20223;-64
2023/07/28 07:18:43;;;;;;;0.40;0.40;;;;;;;29.26;35.87;99476.28;5069577;28;20204;-63
2023/07/28 07:21:10;;;;;;;0.73;0.60;;;;;;;29.47;33.92;99482.75;5069731;28;20211;-63
2023/07/28 07:23:37;;;;;;;0.57;0.57;;;;;;;29.63;33.22;99474.81;5070852;28;20723;-63
2023/07/28 07:26:05;;;;;;;0.63;0.63;;;;;;;29.78;34.13;99467.06;5072227;28;20204;-64
2023/07/28 07:28:34;;;;;;;0.50;0.50;;;;;;;30.06;34.12;99483.41;5071206;28;20203;-63
2023/07/28 07:31:01;;;;;;;0.60;0.60;;;;;;;30.24;33.13;99483.19;5072126;28;20196;-63
2023/07/28 07:33:28;;;;;;;0.43;0.43;;;;;;;30.34;32.39;99487.28;5072546;28;20202;-63
2023/07/28 07:35:55;;;;;;;0.52;0.40;;;;;;;30.35;31.02;99485.47;5072241;28;20219;-63
2023/07/28 07:38:21;;;;;;;0.50;0.50;;;;;;;30.50;33.61;99489.91;5072149;28;20200;-63
2023/07/28 07:40:48;;;;;;;0.30;0.30;;;;;;;30.60;30.81;99495.81;5067103;28;20196;-63
2023/07/28 07:43:20;;;;;;;0.60;0.60;;;;;;;30.66;33.80;99478.47;5072276;28;20200;-63
2023/07/28 07:45:49;;;;;;;0.50;0.50;;;;;;;30.62;30.86;99480.63;5071506;28;20203;-63
2023/07/28 07:48:16;;;;;;;0.30;0.30;;;;;;;30.67;29.88;99474.78;5072278;28;20265;-63
2023/07/28 07:50:43;;;;;;;0.30;0.30;;;;;;;30.63;30.84;99481.44;5072094;28;20671;-63
2023/07/28 07:53:10;;;;;;;0.47;0.47;;;;;;;30.82;32.08;99477.53;5071835;28;20285;-61
2023/07/28 07:55:37;;;;;;;0.57;0.57;;;;;;;30.92;30.94;99481.59;5071754;28;20196;-61
2023/07/28 07:58:04;;;;;;;0.30;0.30;;;;;;;30.94;32.32;99479.63;5071656;28;20199;-61
2023/07/28 08:00:32;;;;;;;0.40;0.40;;;;;;;30.89;30.66;99479.31;5071889;28;20227;-61
2023/07/28 08:02:59;;;;;;;0.40;0.40;;;;;;;30.83;32.81;99480.00;5069058;28;20192;-62
2023/07/28 08:05:26;;;;;;;0.43;0.43;;;;;;;30.85;31.57;99467.44;5069465;28;20196;-64
2023/07/28 08:07:53;;;;;;;0.40;0.40;;;;;;;30.94;32.44;99476.97;5067222;28;20672;-65
2023/07/28 08:10:20;;;;;;;0.55;0.55;;;;;;;30.93;30.67;99470.03;5071469;28;20207;-65
2023/07/28 08:12:47;;;;;;;0.30;0.30;;;;;;;30.69;29.09;99467.53;5071897;28;20219;-65
2023/07/28 08:15:14;;;;;;;0.57;0.57;;;;;;;30.00;30.07;99471.69;5071802;28;20281;-65
2023/07/28 08:17:42;;;;;;;0.50;0.50;;;;;;;29.99;32.19;99469.19;5070480;28;20279;-65
2023/07/28 08:20:09;;;;;;;1.75;0.43;;;;;;;30.13;31.40;99466.69;5071830;28;20203;-65
2023/07/28 08:22:36;;;;;;;0.50;0.50;;;;;;;30.44;32.58;99458.84;5071404;28;20195;-65
2023/07/28 08:25:04;;;;;;;0.40;0.40;;;;;;;30.74;33.50;99459.88;5071654;28;20196;-62
2023/07/28 08:27:31;;;;;;;0.40;0.40;;;;;;;30.74;31.07;99462.53;5071381;28;20215;-65
2023/07/28 08:29:57;;;;;;;0.30;0.30;;;;;;;30.76;31.74;99455.22;5067615;28;20204;-65
2023/07/28 08:32:24;;;;;;;0.40;0.40;;;;;;;30.55;29.67;99457.66;5071499;28;20219;-64
2023/07/28 08:34:52;;;;;;;0.30;0.30;;;;;;;30.53;30.71;99452.56;5071347;28;20553;-64
2023/07/28 08:37:19;;;;;;;0.40;0.40;;;;;;;30.62;29.83;99450.69;5071475;28;20202;-65
2023/07/28 08:39:46;;;;;;;0.60;0.50;;;;;;;30.69;30.99;99459.59;5071099;28;20584;-65
2023/07/28 08:42:13;;;;;;;0.60;0.60;;;;;;;30.86;32.48;99444.44;5071145;28;20203;-65
2023/07/28 08:44:40;;;;;;;0.47;0.47;;;;;;;30.93;30.88;99448.00;5071040;28;20196;-65
2023/07/28 08:47:07;;;;;;;0.40;0.40;;;;;;;31.04;31.63;99445.00;5071238;28;20203;-65
2023/07/28 08:49:36;;;;;;;0.30;0.30;;;;;;;31.24;33.12;99438.25;5070800;28;20199;-65
2023/07/28 08:52:05;;;;;;;0.47;0.47;;;;;;;31.26;30.62;99432.75;5071513;28;20791;-64
2023/07/28 08:54:32;;;;;;;0.40;0.40;;;;;;;31.28;29.94;99431.56;5069780;28;20200;-65
2023/07/28 08:56:58;;;;;;;0.40;0.40;;;;;;;31.11;29.74;99425.59;5070842;28;20200;-65
2023/07/28 08:59:26;;;;;;;0.50;0.50;;;;;;;31.31;31.64;99430.41;5070777;28;20196;-65
2023/07/28 09:01:53;;;;;;;0.40;0.40;;;;;;;31.39;31.50;99433.00;5070908;28;20210;-65
2023/07/28 09:04:21;;;;;;;1.55;0.50;;;;;;;31.49;31.73;99433.56;5070778;28;20195;-65
2023/07/28 09:06:48;;;;;;;0.30;0.30;;;;;;;31.47;29.19;99427.63;5071017;28;20218;-65
2023/07/28 09:09:17;;;;;;;0.50;0.50;;;;;;;31.52;28.13;99422.66;5070321;28;20207;-65
2023/07/28 09:11:46;;;;;;;0.50;0.50;;;;;;;31.53;28.19;99419.00;5070468;28;20219;-65
2023/07/28 09:17:09;;;;;;;0.30;0.30;;;;;;;31.45;26.14;99413.72;5037485;23;20712;-66
2023/07/28 09:19:50;;;;;;;0.30;0.30;;;;;;;31.57;27.72;99417.63;5039640;28;20202;-66
2023/07/28 09:22:18;;;;;;;0.40;0.40;;;;;;;31.46;27.76;99418.84;5034742;28;20231;-66
2023/07/28 09:24:47;;;;;;;0.32;0.32;;;;;;;31.46;27.62;99415.38;5041235;28;20251;-66
2023/07/28 09:27:21;;;;;;;0.40;0.40;;;;;;;31.29;26.79;99411.22;5043836;28;20492;-66
2023/07/28 09:29:49;;;;;;;0.30;0.30;;;;;;;31.33;27.31;99412.50;5039710;28;20224;-66
2023/07/28 09:32:16;;;;;;;0.40;0.40;;;;;;;31.27;25.33;99408.75;5045646;28;20714;-66
2023/07/28 09:34:42;;;;;;;1.85;0.40;;;;;;;31.17;26.65;99402.88;5033422;28;20203;-66
2023/07/28 09:37:11;;;;;;;0.40;0.40;;;;;;;30.96;26.34;99395.56;5044253;28;20209;-66
2023/07/28 09:39:37;;;;;;;0.38;0.38;;;;;;;30.89;26.72;99394.59;5040875;28;20292;-65
2023/07/28 09:42:10;;;;;;;0.50;0.50;;;;;;;30.85;28.11;99388.03;5037524;28;20205;-66
2023/07/28 09:44:37;;;;;;;0.30;0.30;;;;;;;31.07;31.80;99381.94;5037176;28;20204;-64
2023/07/28 09:47:06;;;;;;;0.80;0.40;;;;;;;31.20;26.87;99386.63;5028720;28;20677;-65
2023/07/28 09:49:38;;;;;;;0.43;0.43;;;;;;;31.14;27.28;99382.03;5036961;28;20196;-64
2023/07/28 09:52:06;;;;;;;0.40;0.40;;;;;;;31.12;27.73;99368.13;5044190;28;20216;-64
2023/07/28 09:54:42;;;;;;;0.52;0.52;;;;;;;31.26;28.29;99377.97;5042880;28;20217;-63
2023/07/28 09:57:14;;;;;;;0.40;0.40;;;;;;;31.56;29.58;99368.28;5031703;28;20201;-63
2023/07/28 09:59:42;;;;;;;1.00;0.47;;;;;;;31.88;26.12;99365.28;5044347;28;20204;-63
2023/07/28 10:02:10;;;;;;;0.40;0.40;;;;;;;32.01;26.12;99365.47;5040839;28;20213;-63
2023/07/28 10:04:37;;;;;;;0.50;0.50;;;;;;;32.11;26.47;99354.59;5033090;28;20201;-63
2023/07/28 10:07:06;;;;;;;0.35;0.35;;;;;;;32.04;26.05;99359.81;5043066;28;20210;-63
2023/07/28 10:09:34;;;;;;;0.40;0.40;;;;;;;32.17;27.04;99354.69;5040865;28;20283;-64
2023/07/28 10:12:03;;;;;;;0.40;0.40;;;;;;;32.21;27.10;99349.84;5045429;28;20253;-63
2023/07/28 10:14:33;;;;;;;0.40;0.40;;;;;;;32.02;27.84;99345.88;5044885;28;20625;-64
2023/07/28 10:17:01;;;;;;;0.30;0.30;;;;;;;31.82;25.58;99344.81;5044723;28;20235;-64
2023/07/28 10:19:28;;;;;;;0.47;0.40;;;;;;;31.80;26.29;99330.91;5052656;28;20228;-63
2023/07/28 10:22:02;;;;;;;0.40;0.40;;;;;;;31.59;26.94;99328.16;5052097;28;20227;-64
2023/07/28 10:24:53;;;;;;;0.40;0.40;;;;;;;31.80;30.18;99330.06;5053236;28;20204;-63
2023/07/28 10:27:32;;;;;;;0.52;0.40;;;;;;;31.90;28.44;99325.31;5053664;28;20201;-63
2023/07/28 10:30:04;;;;;;;0.40;0.40;;;;;;;31.06;25.88;99324.66;5051378;28;20668;-64
2023/07/28 10:32:38;;;;;;;0.47;0.47;;;;;;;31.19;26.46;99316.94;5053185;28;20221;-64
2023/07/28 10:35:08;;;;;;;0.50;0.50;;;;;;;31.33;27.56;99312.66;5051742;28;20251;-64
2023/07/28 10:37:36;;;;;;;0.28;0.28;;;;;;;31.47;25.38;99303.09;5053404;28;20664;-63
2023/07/28 10:40:27;;;;;;;0.30;0.30;;;;;;;31.44;24.16;99316.72;5052157;28;20204;-64
2023/07/28 10:42:54;;;;;;;0.52;0.52;;;;;;;31.39;25.35;99311.94;5053637;28;20279;-64
2023/07/28 10:45:24;;;;;;;0.32;0.32;;;;;;;31.28;24.66;99308.91;5053595;28;20205;-64
2023/07/28 10:47:55;;;;;;;0.50;0.50;;;;;;;31.19;26.78;99305.50;5053501;28;20289;-64
2023/07/28 10:50:22;;;;;;;0.20;0.20;;;;;;;30.93;25.28;99308.50;5053492;28;20248;-63
2023/07/28 10:52:49;;;;;;;0.30;0.30;;;;;;;31.12;25.44;99286.03;5053155;28;20219;-63
2023/07/28 10:55:16;;;;;;;0.40;0.40;;;;;;;31.33;24.79;99291.47;5050273;28;20216;-63
2023/07/28 10:57:44;;;;;;;0.30;0.30;;;;;;;31.67;27.45;99293.59;5051550;28;20208;-63
2023/07/28 11:00:12;;;;;;;0.40;0.40;;;;;;;31.97;24.11;99295.22;5053122;28;20678;-64
2023/07/28 11:02:43;;;;;;;0.30;0.30;;;;;;;32.12;23.82;99280.13;5051872;28;20228;-64
2023/07/28 11:05:15;;;;;;;0.40;0.40;;;;;;;32.31;24.53;99285.84;5052443;28;20296;-64
2023/07/28 11:07:43;;;;;;;1.02;0.40;;;;;;;32.24;25.18;99278.66;5056419;28;20224;-64
2023/07/28 11:10:11;;;;;;;0.40;0.40;;;;;;;32.11;24.34;99269.72;5049687;28;20240;-64
2023/07/28 11:12:42;;;;;;;0.32;0.32;;;;;;;32.16;23.81;99273.44;5050276;28;20216;-64
2023/07/28 11:15:11;;;;;;;0.30;0.30;;;;;;;32.15;24.27;99277.09;5051582;28;20232;-64
2023/07/28 11:17:39;;;;;;;0.43;0.43;;;;;;;32.04;24.99;99269.66;5052677;28;20312;-64
2023/07/28 11:20:16;;;;;;;0.40;0.40;;;;;;;31.89;23.27;99266.16;5052974;28;20211;-64
2023/07/28 11:22:43;;;;;;;0.55;0.55;;;;;;;31.68;25.07;99263.44;5052947;28;20231;-65
2023/07/28 11:25:11;;;;;;;0.20;0.20;;;;;;;31.63;24.11;99266.63;5052670;28;20204;-64
2023/07/28 11:27:39;;;;;;;0.40;0.40;;;;;;;31.65;24.49;99243.44;5052593;28;20652;-64
2023/07/28 11:30:09;;;;;;;0.40;0.40;;;;;;;31.83;24.96;99244.88;5052873;28;20205;-64
2023/07/28 11:32:37;;;;;;;0.30;0.30;;;;;;;32.25;27.04;99258.22;5052533;28;20715;-64
2023/07/28 11:35:05;;;;;;;0.47;0.47;;;;;;;32.42;27.25;99251.69;5052460;28;20205;-64
2023/07/28 11:37:34;;;;;;;0.30;0.30;;;;;;;32.30;23.80;99241.75;5052000;28;20236;-65
2023/07/28 11:40:02;;;;;;;0.40;0.40;;;;;;;32.19;23.50;99227.97;5052020;28;20240;-64